^^

..:: Storico WU ::..




Lo storico viene creato da WUnderground con i dati che la stazione Meteomincio invia al loro server. L' aggiornamento viene fatto ogni 5 minuti circa, tuttavia possono esserci intervalli pił ampi a causa di errori, interruzioni di servizio o problemi nell' invio tramite FTP.


Storico stazione MeteoMincio
Giorno Sommario per Dicembre 07, 2022 Unità:  Inglese    Metrico   Entrambi
Giorno Settimana Mese Anno
  Max: Min: Media:
Temperatura: 39.2 °F 32 °F 36.5 °F
Dew Point: 39.2 °F 32 °F 35.6 °F
Umidità: 97% 96% 96%
Velocità vento: 6.2mph 0mph 3.6mph
Raffica: 9.3mph - -
Direzione- - West
Pressione: 30 in 29.9 in -
Precipitazioni: 0 in    
 
 
Tabulato Dati per Dicembre 07, 2022
Ora Temperatura Dew Point Pressione Direzione Velocità vento Raffica Umidità Intensità pioggia (oraria) Info solare Situazione
00:04 39.2 °F 37.4 °F 30 in WNW 4.3 mph 5 mph 96% 0 in 0.00 W/m2 unknown
00:09 39.2 °F 37.4 °F 30 in West 3.1 mph 5 mph 96% 0 in 0.00 W/m2 unknown
00:14 39.2 °F 37.4 °F 30 in WNW 4.3 mph 5 mph 96% 0 in 0.00 W/m2 unknown
00:19 39.2 °F 37.4 °F 30 in WNW 3.1 mph 5 mph 96% 0 in 0.00 W/m2 unknown
00:24 39.2 °F 37.4 °F 30 in WNW 3.1 mph 3.7 mph 96% 0 in 0.00 W/m2 unknown
00:29 39.2 °F 39.2 °F 30 in WNW 2.5 mph 3.7 mph 96% 0 in 0.00 W/m2 unknown
00:34 39.2 °F 39.2 °F 30 in West 1.9 mph 3.7 mph 96% 0 in 0.00 W/m2 unknown
00:39 39.2 °F 39.2 °F 30 in West 1.9 mph 3.7 mph 96% 0 in 0.00 W/m2 unknown
00:44 39.2 °F 39.2 °F 30 in WSW 5 mph 6.8 mph 96% 0 in 0.00 W/m2 unknown
00:49 39.2 °F 39.2 °F 30 in WSW 3.7 mph 6.8 mph 96% 0 in 0.00 W/m2 unknown
00:54 39.2 °F 39.2 °F 30 in WSW 4.3 mph 5.6 mph 97% 0 in 0.00 W/m2 unknown
00:59 39.2 °F 39.2 °F 30 in West 3.1 mph 5 mph 97% 0 in 0.00 W/m2 unknown
01:04 39.2 °F 39.2 °F 30 in West 3.1 mph 5 mph 97% 0 in 0.00 W/m2 unknown
01:09 39.2 °F 39.2 °F 30 in West 2.5 mph 5 mph 97% 0 in 0.00 W/m2 unknown
01:14 39.2 °F 39.2 °F 30 in WSW 3.1 mph 3.7 mph 97% 0 in 0.00 W/m2 unknown
01:19 39.2 °F 39.2 °F 30 in WSW 3.1 mph 3.7 mph 97% 0 in 0.00 W/m2 unknown
01:24 39.2 °F 39.2 °F 30 in WSW 1.2 mph 3.1 mph 97% 0 in 0.00 W/m2 unknown
01:29 39.2 °F 39.2 °F 30 in West 1.2 mph 2.5 mph 97% 0 in 0.00 W/m2 unknown
01:34 39.2 °F 39.2 °F 30 in West 4.3 mph 6.2 mph 97% 0 in 0.00 W/m2 unknown
01:39 39.2 °F 39.2 °F 30 in WNW 5.6 mph 6.8 mph 97% 0 in 0.00 W/m2 unknown
01:44 39.2 °F 39.2 °F 30 in WNW 5 mph 6.8 mph 97% 0 in 0.00 W/m2 unknown
01:49 39.2 °F 39.2 °F 30 in WNW 3.7 mph 6.2 mph 96% 0 in 0.00 W/m2 unknown
01:54 39.2 °F 39.2 °F 30 in NW 3.7 mph 5 mph 96% 0 in 0.00 W/m2 unknown
01:59 39.2 °F 37.4 °F 30 in NW 3.1 mph 4.3 mph 96% 0 in 0.00 W/m2 unknown
02:04 39.2 °F 37.4 °F 30 in NW 2.5 mph 5 mph 96% 0 in 0.00 W/m2 unknown
02:09 39.2 °F 37.4 °F 30 in WNW 2.5 mph 3.7 mph 96% 0 in 0.00 W/m2 unknown
02:14 39.2 °F 37.4 °F 30 in West 3.7 mph 3.7 mph 96% 0 in 0.00 W/m2 unknown
02:19 39.2 °F 37.4 °F 30 in WNW 2.5 mph 3.7 mph 96% 0 in 0.00 W/m2 unknown
02:24 39.2 °F 37.4 °F 30 in WNW 3.1 mph 3.7 mph 96% 0 in 0.00 W/m2 unknown
02:29 39.2 °F 37.4 °F 30 in Calm   3.1 mph 96% 0 in 0.00 W/m2 unknown
02:34 39.2 °F 37.4 °F 30 in Calm     96% 0 in 0.00 W/m2 unknown
02:39 39.2 °F 37.4 °F 30 in Calm     96% 0 in 0.00 W/m2 unknown
02:44 37.4 °F 37.4 °F 30 in West 2.5 mph 3.7 mph 96% 0 in 0.00 W/m2 unknown
02:49 37.4 °F 37.4 °F 30 in West 2.5 mph 3.7 mph 96% 0 in 0.00 W/m2 unknown
02:54 37.4 °F 37.4 °F 30 in WSW 2.5 mph 3.7 mph 96% 0 in 0.00 W/m2 unknown
02:59 37.4 °F 37.4 °F 30 in West 1.9 mph 3.1 mph 96% 0 in 0.00 W/m2 unknown
03:04 37.4 °F 37.4 °F 30 in WSW 1.2 mph 2.5 mph 96% 0 in 0.00 W/m2 unknown
03:09 37.4 °F 37.4 °F 30 in WSW 2.5 mph 3.7 mph 96% 0 in 0.00 W/m2 unknown
03:14 37.4 °F 37.4 °F 30 in WSW 3.1 mph 3.7 mph 96% 0 in 0.00 W/m2 unknown
03:19 37.4 °F 37.4 °F 30 in WSW 3.1 mph 3.7 mph 96% 0 in 0.00 W/m2 unknown
03:24 37.4 °F 37.4 °F 30 in WNW 2.5 mph 3.7 mph 96% 0 in 0.00 W/m2 unknown
03:29 37.4 °F 37.4 °F 30 in West 2.5 mph 3.7 mph 96% 0 in 0.00 W/m2 unknown
03:34 37.4 °F 37.4 °F 30 in West 1.2 mph 3.1 mph 96% 0 in 0.00 W/m2 unknown
03:39 37.4 °F 37.4 °F 30 in Calm   1.9 mph 97% 0 in 0.00 W/m2 unknown
03:44 37.4 °F 37.4 °F 30 in Calm     97% 0 in 0.00 W/m2 unknown
03:49 37.4 °F 37.4 °F 30 in SW 1.2 mph 2.5 mph 97% 0 in 0.00 W/m2 unknown
03:54 37.4 °F 37.4 °F 30 in WSW 1.9 mph 3.1 mph 97% 0 in 0.00 W/m2 unknown
03:59 37.4 °F 37.4 °F 29.9 in WNW 1.9 mph 3.7 mph 97% 0 in 0.00 W/m2 unknown
04:04 37.4 °F 37.4 °F 30 in West 3.1 mph 3.7 mph 96% 0 in 0.00 W/m2 unknown
04:09 37.4 °F 37.4 °F 30 in WNW 1.9 mph 3.7 mph 96% 0 in 0.00 W/m2 unknown
04:14 37.4 °F 37.4 °F 29.9 in WNW 1.9 mph 2.5 mph 96% 0 in 0.00 W/m2 unknown
04:19 37.4 °F 37.4 °F 29.9 in NW 1.2 mph 2.5 mph 96% 0 in 0.00 W/m2 unknown
04:24 37.4 °F 37.4 °F 29.9 in NW 1.2 mph 1.9 mph 96% 0 in 0.00 W/m2 unknown
04:29 37.4 °F 37.4 °F 29.9 in NW 0.6 mph 1.2 mph 96% 0 in 0.00 W/m2 unknown
04:34 37.4 °F 37.4 °F 29.9 in NW 0.6 mph 1.9 mph 96% 0 in 0.00 W/m2 unknown
04:39 37.4 °F 35.6 °F 29.9 in WNW 1.2 mph 2.5 mph 96% 0 in 0.00 W/m2 unknown
04:44 37.4 °F 35.6 °F 29.9 in WNW 1.2 mph 2.5 mph 96% 0 in 0.00 W/m2 unknown
04:49 37.4 °F 35.6 °F 29.9 in WNW 0.6 mph 1.9 mph 96% 0 in 0.00 W/m2 unknown
04:54 37.4 °F 35.6 °F 29.9 in WNW 1.2 mph 1.9 mph 96% 0 in 0.00 W/m2 unknown
04:59 37.4 °F 35.6 °F 29.9 in WNW 1.9 mph 2.5 mph 96% 0 in 0.00 W/m2 unknown
05:04 37.4 °F 35.6 °F 29.9 in WNW 1.2 mph 2.5 mph 96% 0 in 0.00 W/m2 unknown
05:09 37.4 °F 35.6 °F 29.9 in WNW 1.2 mph 2.5 mph 96% 0 in 0.00 W/m2 unknown
05:14 37.4 °F 35.6 °F 29.9 in NW 0.6 mph 1.9 mph 96% 0 in 0.00 W/m2 unknown
05:19 37.4 °F 35.6 °F 29.9 in West 2.5 mph 3.7 mph 96% 0 in 0.00 W/m2 unknown
05:24 37.4 °F 35.6 °F 29.9 in WSW 2.5 mph 3.7 mph 96% 0 in 0.00 W/m2 unknown
05:29 37.4 °F 35.6 °F 29.9 in WSW 0.6 mph 3.1 mph 96% 0 in 0.00 W/m2 unknown
05:34 37.4 °F 35.6 °F 29.9 in WNW 1.9 mph 3.7 mph 96% 0 in 0.00 W/m2 unknown
05:39 37.4 °F 35.6 °F 29.9 in WNW 1.9 mph 3.7 mph 96% 0 in 0.00 W/m2 unknown
05:44 37.4 °F 35.6 °F 29.9 in WNW 2.5 mph 3.7 mph 96% 0 in 0.00 W/m2 unknown
05:49 37.4 °F 35.6 °F 29.9 in NW 2.5 mph 3.7 mph 96% 0 in 0.00 W/m2 unknown
05:54 35.6 °F 35.6 °F 29.9 in NW 1.9 mph 3.7 mph 96% 0 in 0.00 W/m2 unknown
05:59 35.6 °F 35.6 °F 29.9 in NNW 2.5 mph 3.7 mph 96% 0 in 0.00 W/m2 unknown
06:04 35.6 °F 35.6 °F 29.9 in NW 2.5 mph 3.7 mph 96% 0 in 0.00 W/m2 unknown
06:09 35.6 °F 35.6 °F 29.9 in NW 2.5 mph 3.7 mph 96% 0 in 0.00 W/m2 unknown
06:14 35.6 °F 35.6 °F 29.9 in NNW 2.5 mph 3.7 mph 96% 0 in 0.00 W/m2 unknown
06:19 35.6 °F 35.6 °F 29.9 in NW 3.7 mph 5 mph 96% 0 in 0.00 W/m2 unknown
06:24 35.6 °F 35.6 °F 29.9 in NNW 1.9 mph 5 mph 96% 0 in 0.00 W/m2 unknown
06:29 35.6 °F 33.8 °F 29.9 in NW 1.9 mph 3.7 mph 96% 0 in 0.00 W/m2 unknown
06:34 35.6 °F 33.8 °F 29.9 in NW 1.9 mph 3.7 mph 96% 0 in 0.00 W/m2 unknown
06:39 35.6 °F 33.8 °F 29.9 in NW 1.9 mph 3.1 mph 96% 0 in 0.00 W/m2 unknown
06:44 35.6 °F 33.8 °F 29.9 in NNW 1.9 mph 3.7 mph 96% 0 in 0.00 W/m2 unknown
06:49 35.6 °F 33.8 °F 29.9 in WNW 1.2 mph 3.1 mph 96% 0 in 0.00 W/m2 unknown
06:54 35.6 °F 33.8 °F 29.9 in WNW 1.2 mph 2.5 mph 96% 0 in 0.00 W/m2 unknown
06:59 35.6 °F 33.8 °F 29.9 in WNW 1.2 mph 3.7 mph 96% 0 in 0.00 W/m2 unknown
07:04 35.6 °F 33.8 °F 29.9 in West 3.1 mph 3.7 mph 96% 0 in 0.00 W/m2 unknown
07:09 35.6 °F 33.8 °F 29.9 in WNW 3.1 mph 3.7 mph 96% 0 in 0.00 W/m2 unknown
07:14 35.6 °F 33.8 °F 29.9 in WSW 1.9 mph 3.7 mph 96% 0 in 0.00 W/m2 unknown
07:19 33.8 °F 33.8 °F 29.9 in West 3.1 mph 3.7 mph 96% 0 in 0.00 W/m2 unknown
07:24 33.8 °F 33.8 °F 29.9 in WNW 1.9 mph 3.1 mph 96% 0 in 0.00 W/m2 unknown
07:29 33.8 °F 33.8 °F 29.9 in WNW 2.5 mph 3.7 mph 96% 0 in 0.00 W/m2 unknown
07:34 33.8 °F 33.8 °F 29.9 in WNW 2.5 mph 3.7 mph 96% 0 in 0.00 W/m2 unknown
07:39 33.8 °F 33.8 °F 29.9 in NW 2.5 mph 3.7 mph 96% 0 in 0.00 W/m2 unknown
07:44 33.8 °F 33.8 °F 29.9 in NW 3.1 mph 3.7 mph 96% 0 in 0.00 W/m2 unknown
07:49 33.8 °F 33.8 °F 29.9 in West 3.1 mph 5 mph 96% 0 in 0.00 W/m2 unknown
07:54 33.8 °F 32 °F 29.9 in WNW 3.1 mph 5 mph 96% 0 in 0.00 W/m2 unknown
07:59 33.8 °F 32 °F 29.9 in NW 3.1 mph 5 mph 96% 0 in 5.00 W/m2 unknown
08:04 33.8 °F 32 °F 30 in NNW 3.1 mph 3.7 mph 96% 0 in 7.00 W/m2 unknown
08:09 33.8 °F 32 °F 30 in WNW 3.7 mph 3.7 mph 96% 0 in 7.00 W/m2 unknown
08:14 33.8 °F 32 °F 30 in WNW 3.1 mph 3.7 mph 96% 0 in 9.00 W/m2 unknown
08:19 33.8 °F 32 °F 30 in WNW 3.1 mph 3.7 mph 96% 0 in 11.00 W/m2 unknown
08:24 33.8 °F 32 °F 30 in WNW 3.7 mph 5 mph 96% 0 in 12.00 W/m2 unknown
08:29 32 °F 32 °F 30 in WNW 3.1 mph 5 mph 96% 0 in 16.00 W/m2 unknown
08:34 32 °F 32 °F 30 in WNW 1.9 mph 3.7 mph 96% 0 in 14.00 W/m2 unknown
08:39 32 °F 32 °F 30 in NW 1.9 mph 3.7 mph 96% 0 in 18.00 W/m2 unknown
08:44 32 °F 32 °F 30 in NW 2.5 mph 3.7 mph 96% 0 in 21.00 W/m2 unknown
08:49 32 °F 32 °F 30 in NW 2.5 mph 3.7 mph 96% 0 in 23.00 W/m2 unknown
08:54 32 °F 32 °F 30 in WNW 1.9 mph 3.1 mph 96% 0 in 28.00 W/m2 unknown
08:59 32 °F 32 °F 30 in West 1.2 mph 2.5 mph 96% 0 in 35.00 W/m2 unknown
09:04 32 °F 32 °F 30 in West 1.2 mph 3.7 mph 96% 0 in 30.00 W/m2 unknown
09:09 32 °F 32 °F 30 in WNW 1.2 mph 3.1 mph 96% 0 in 25.00 W/m2 unknown
09:14 32 °F 32 °F 30 in NW 1.9 mph 3.7 mph 96% 0 in 30.00 W/m2 unknown
09:19 32 °F 32 °F 30 in WNW 1.2 mph 3.1 mph 96% 0 in 25.00 W/m2 unknown
09:24 32 °F 32 °F 30 in WNW 1.2 mph 2.5 mph 96% 0 in 26.00 W/m2 unknown
09:29 32 °F 32 °F 30 in WNW 2.5 mph 3.7 mph 96% 0 in 30.00 W/m2 unknown
09:34 32 °F 32 °F 30 in WNW 2.5 mph 3.7 mph 96% 0 in 40.00 W/m2 unknown
09:39 32 °F 32 °F 30 in West 2.5 mph 3.7 mph 96% 0 in 77.00 W/m2 unknown
09:44 32 °F 32 °F 30 in West 2.5 mph 3.7 mph 96% 0 in 102.00 W/m2 unknown
09:49 32 °F 32 °F 30 in NW 2.5 mph 3.7 mph 96% 0 in 116.00 W/m2 unknown
09:54 32 °F 32 °F 30 in WNW 2.5 mph 3.7 mph 96% 0 in 116.00 W/m2 unknown
09:59 32 °F 32 °F 30 in NW 1.9 mph 3.7 mph 96% 0 in 104.00 W/m2 unknown
10:04 33.8 °F 32 °F 30 in NNW 1.9 mph 3.1 mph 97% 0 in 93.00 W/m2 unknown
10:09 33.8 °F 32 °F 30 in NW 1.9 mph 3.7 mph 97% 0 in 56.00 W/m2 unknown
10:14 33.8 °F 32 °F 30 in WNW 1.9 mph 3.1 mph 97% 0 in 100.00 W/m2 unknown
10:19 33.8 °F 32 °F 30 in WNW 1.9 mph 3.1 mph 97% 0 in 102.00 W/m2 unknown
10:24 33.8 °F 32 °F 30 in WNW 1.9 mph 3.7 mph 97% 0 in 111.00 W/m2 unknown
10:29 33.8 °F 32 °F 30 in WSW 3.1 mph 5 mph 97% 0 in 139.00 W/m2 unknown
10:34 33.8 °F 32 °F 30 in WSW 3.1 mph 5 mph 97% 0 in 148.00 W/m2 unknown
10:39 33.8 °F 33.8 °F 30 in SW 3.1 mph 3.7 mph 97% 0 in 113.00 W/m2 unknown
10:44 33.8 °F 33.8 °F 30 in WSW 3.7 mph 5 mph 97% 0 in 128.00 W/m2 unknown
10:49 33.8 °F 33.8 °F 30 in WSW 3.1 mph 5 mph 97% 0 in 139.00 W/m2 unknown
10:54 33.8 °F 33.8 °F 30 in WSW 3.1 mph 3.7 mph 97% 0 in 156.00 W/m2 unknown
10:59 33.8 °F 33.8 °F 30 in WSW 3.7 mph 6.2 mph 97% 0 in 156.00 W/m2 unknown
11:04 33.8 °F 33.8 °F 30 in WSW 4.3 mph 6.2 mph 97% 0 in 156.00 W/m2 unknown
11:09 33.8 °F 33.8 °F 30 in WSW 3.1 mph 5 mph 97% 0 in 156.00 W/m2 unknown
11:14 35.6 °F 33.8 °F 30 in West 3.7 mph 5 mph 97% 0 in 165.00 W/m2 unknown
11:19 35.6 °F 33.8 °F 30 in WSW 3.7 mph 5 mph 97% 0 in 190.00 W/m2 unknown
11:24 35.6 °F 33.8 °F 30 in WSW 3.7 mph 6.2 mph 97% 0 in 148.00 W/m2 unknown
11:29 35.6 °F 33.8 °F 30 in WSW 5 mph 6.2 mph 97% 0 in 174.00 W/m2 unknown
11:34 35.6 °F 35.6 °F 30 in WSW 3.7 mph 6.2 mph 97% 0 in 163.00 W/m2 unknown
11:39 35.6 °F 35.6 °F 30 in WSW 5 mph 6.2 mph 97% 0 in 163.00 W/m2 unknown
11:44 35.6 °F 35.6 °F 30 in SW 5 mph 6.2 mph 97% 0 in 204.00 W/m2 unknown
11:49 35.6 °F 35.6 °F 30 in WSW 4.3 mph 6.2 mph 97% 0 in 218.00 W/m2 unknown
11:54 35.6 °F 35.6 °F 29.9 in SW 3.7 mph 5 mph 97% 0 in 188.00 W/m2 unknown
11:59 37.4 °F 35.6 °F 29.9 in West 4.3 mph 5 mph 97% 0 in 139.00 W/m2 unknown
12:04 37.4 °F 35.6 °F 29.9 in WSW 5 mph 6.2 mph 97% 0 in 148.00 W/m2 unknown
12:09 37.4 °F 35.6 °F 29.9 in WSW 5 mph 6.2 mph 97% 0 in 178.00 W/m2 unknown
12:14 37.4 °F 35.6 °F 29.9 in WSW 4.3 mph 6.2 mph 97% 0 in 155.00 W/m2 unknown
12:19 37.4 °F 35.6 °F 29.9 in WSW 5 mph 6.8 mph 97% 0 in 163.00 W/m2 unknown
12:24 37.4 °F 35.6 °F 29.9 in West 5 mph 6.8 mph 97% 0 in 137.00 W/m2 unknown
12:29 37.4 °F 37.4 °F 29.9 in West 4.3 mph 6.2 mph 97% 0 in 123.00 W/m2 unknown
12:34 37.4 °F 37.4 °F 29.9 in WSW 3.7 mph 5 mph 97% 0 in 213.00 W/m2 unknown
12:39 37.4 °F 37.4 °F 29.9 in West 5 mph 6.2 mph 97% 0 in 148.00 W/m2 unknown
12:44 37.4 °F 37.4 °F 29.9 in West 5 mph 6.8 mph 97% 0 in 178.00 W/m2 unknown
12:49 37.4 °F 37.4 °F 29.9 in West 5 mph 6.8 mph 97% 0 in 171.00 W/m2 unknown
12:54 37.4 °F 37.4 °F 29.9 in WSW 5.6 mph 6.8 mph 97% 0 in 172.00 W/m2 unknown
12:59 37.4 °F 37.4 °F 29.9 in WSW 6.2 mph 6.8 mph 97% 0 in 190.00 W/m2 unknown
13:04 37.4 °F 37.4 °F 29.9 in West 5.6 mph 8.1 mph 97% 0 in 197.00 W/m2 unknown
13:09 37.4 °F 37.4 °F 29.9 in WSW 5.6 mph 8.1 mph 97% 0 in 148.00 W/m2 unknown
13:14 37.4 °F 37.4 °F 29.9 in WNW 5 mph 6.8 mph 97% 0 in 111.00 W/m2 unknown
13:19 37.4 °F 37.4 °F 29.9 in West 3.7 mph 6.2 mph 97% 0 in 105.00 W/m2 unknown
13:24 39.2 °F 37.4 °F 29.9 in West 4.3 mph 6.2 mph 97% 0 in 135.00 W/m2 unknown
13:29 39.2 °F 37.4 °F 29.9 in WNW 5.6 mph 6.8 mph 97% 0 in 130.00 W/m2 unknown
13:34 39.2 °F 37.4 °F 29.9 in West 5.6 mph 6.8 mph 97% 0 in 134.00 W/m2 unknown
13:39 39.2 °F 37.4 °F 29.9 in West 5.6 mph 6.8 mph 97% 0 in 174.00 W/m2 unknown
13:44 39.2 °F 37.4 °F 29.9 in West 5.6 mph 6.8 mph 97% 0 in 135.00 W/m2 unknown
13:49 39.2 °F 37.4 °F 29.9 in West 5.6 mph 6.8 mph 97% 0 in 149.00 W/m2 unknown
13:54 39.2 °F 37.4 °F 29.9 in WNW 5.6 mph 6.8 mph 97% 0 in 128.00 W/m2 unknown
13:59 39.2 °F 37.4 °F 29.9 in West 5 mph 6.8 mph 97% 0 in 172.00 W/m2 unknown
14:04 39.2 °F 37.4 °F 29.9 in West 5 mph 6.8 mph 97% 0 in 123.00 W/m2 unknown
14:09 39.2 °F 37.4 °F 29.9 in WNW 5 mph 6.2 mph 97% 0 in 137.00 W/m2 unknown
14:14 39.2 °F 37.4 °F 29.9 in WNW 4.3 mph 6.2 mph 97% 0 in 111.00 W/m2 unknown
14:19 39.2 °F 37.4 °F 29.9 in West 5.6 mph 6.2 mph 96% 0 in 158.00 W/m2 unknown
14:24 39.2 °F 39.2 °F 29.9 in West 3.7 mph 5 mph 97% 0 in 84.00 W/m2 unknown
14:29 39.2 °F 39.2 °F 29.9 in WNW 3.7 mph 6.2 mph 97% 0 in 95.00 W/m2 unknown
14:34 39.2 °F 37.4 °F 29.9 in West 4.3 mph 6.2 mph 96% 0 in 113.00 W/m2 unknown
14:39 39.2 °F 37.4 °F 29.9 in WSW 5.6 mph 6.8 mph 96% 0 in 135.00 W/m2 unknown
14:44 39.2 °F 39.2 °F 29.9 in WSW 5 mph 6.8 mph 96% 0 in 95.00 W/m2 unknown
14:49 39.2 °F 39.2 °F 29.9 in WSW 4.3 mph 6.2 mph 96% 0 in 97.00 W/m2 unknown
14:54 39.2 °F 37.4 °F 29.9 in West 4.3 mph 6.2 mph 96% 0 in 58.00 W/m2 unknown
14:59 39.2 °F 37.4 °F 29.9 in West 4.3 mph 6.2 mph 96% 0 in 91.00 W/m2 unknown
15:04 39.2 °F 37.4 °F 29.9 in WSW 4.3 mph 6.2 mph 96% 0 in 65.00 W/m2 unknown
15:09 39.2 °F 37.4 °F 29.9 in West 5.6 mph 6.8 mph 96% 0 in 91.00 W/m2 unknown
15:14 39.2 °F 37.4 °F 29.9 in West 5 mph 6.8 mph 96% 0 in 79.00 W/m2 unknown
15:19 39.2 °F 37.4 °F 29.9 in West 3.7 mph 6.2 mph 96% 0 in 51.00 W/m2 unknown
15:24 39.2 °F 37.4 °F 29.9 in WSW 5.6 mph 6.8 mph 96% 0 in 56.00 W/m2 unknown
15:29 39.2 °F 37.4 °F 29.9 in WSW 5 mph 6.8 mph 96% 0 in 39.00 W/m2 unknown
15:34 39.2 °F 37.4 °F 29.9 in WSW 6.2 mph 8.1 mph 96% 0 in 51.00 W/m2 unknown
15:39 39.2 °F 37.4 °F 29.9 in West 5.6 mph 8.1 mph 96% 0 in 28.00 W/m2 unknown
15:44 39.2 °F 37.4 °F 29.9 in WSW 5 mph 6.8 mph 96% 0 in 23.00 W/m2 unknown
15:49 39.2 °F 37.4 °F 29.9 in WSW 5.6 mph 6.8 mph 96% 0 in 28.00 W/m2 unknown
15:54 39.2 °F 37.4 °F 29.9 in WSW 6.2 mph 8.1 mph 96% 0 in 28.00 W/m2 unknown
15:59 39.2 °F 37.4 °F 29.9 in WSW 6.2 mph 8.1 mph 96% 0 in 26.00 W/m2 unknown
16:04 39.2 °F 37.4 °F 29.9 in WSW 6.2 mph 8.1 mph 96% 0 in 14.00 W/m2 unknown
16:09 37.4 °F 37.4 °F 29.9 in SW 5.6 mph 6.8 mph 96% 0 in 14.00 W/m2 unknown
16:14 37.4 °F 37.4 °F 29.9 in WSW 6.2 mph 6.8 mph 96% 0 in 11.00 W/m2 unknown
16:19 37.4 °F 37.4 °F 29.9 in WSW 5 mph 6.2 mph 96% 0 in 7.00 W/m2 unknown
16:24 37.4 °F 37.4 °F 29.9 in West 3.7 mph 6.2 mph 96% 0 in 0.00 W/m2 unknown
16:29 37.4 °F 37.4 °F 29.9 in West 3.7 mph 6.2 mph 96% 0 in 0.00 W/m2 unknown
16:34 37.4 °F 37.4 °F 29.9 in WNW 3.7 mph 6.2 mph 96% 0 in 0.00 W/m2 unknown
16:39 37.4 °F 37.4 °F 29.9 in WNW 4.3 mph 6.2 mph 96% 0 in 0.00 W/m2 unknown
16:44 37.4 °F 37.4 °F 29.9 in West 5.6 mph 6.8 mph 96% 0 in 0.00 W/m2 unknown
16:49 37.4 °F 37.4 °F 29.9 in WSW 5.6 mph 6.8 mph 96% 0 in 0.00 W/m2 unknown
16:54 37.4 °F 37.4 °F 29.9 in West 5.6 mph 6.8 mph 96% 0 in 0.00 W/m2 unknown
16:59 37.4 °F 37.4 °F 29.9 in West 5 mph 6.8 mph 96% 0 in 0.00 W/m2 unknown
17:04 37.4 °F 37.4 °F 29.9 in WNW 5 mph 6.2 mph 96% 0 in 0.00 W/m2 unknown
17:09 37.4 °F 35.6 °F 29.9 in West 5 mph 6.2 mph 96% 0 in 0.00 W/m2 unknown
17:14 37.4 °F 35.6 °F 29.9 in NW 5 mph 6.2 mph 96% 0 in 0.00 W/m2 unknown
17:19 37.4 °F 35.6 °F 29.9 in WNW 6.2 mph 8.1 mph 96% 0 in 0.00 W/m2 unknown
17:24 37.4 °F 35.6 °F 29.9 in WNW 5 mph 8.1 mph 96% 0 in 0.00 W/m2 unknown
17:29 37.4 °F 35.6 °F 29.9 in WSW 4.3 mph 6.8 mph 96% 0 in 0.00 W/m2 unknown
17:34 37.4 °F 35.6 °F 29.9 in WSW 5 mph 6.8 mph 96% 0 in 0.00 W/m2 unknown
17:39 37.4 °F 35.6 °F 29.9 in West 5 mph 6.8 mph 96% 0 in 0.00 W/m2 unknown
17:44 37.4 °F 35.6 °F 29.9 in West 3.7 mph 5 mph 96% 0 in 0.00 W/m2 unknown
17:49 37.4 °F 35.6 °F 29.9 in WSW 4.3 mph 6.2 mph 96% 0 in 0.00 W/m2 unknown
17:54 37.4 °F 35.6 °F 29.9 in WSW 5 mph 6.2 mph 96% 0 in 0.00 W/m2 unknown
17:59 37.4 °F 35.6 °F 29.9 in West 3.1 mph 6.2 mph 96% 0 in 0.00 W/m2 unknown
18:04 37.4 °F 35.6 °F 29.9 in West 4.3 mph 6.2 mph 96% 0 in 0.00 W/m2 unknown
18:09 37.4 °F 35.6 °F 29.9 in WNW 3.7 mph 6.2 mph 96% 0 in 0.00 W/m2 unknown
18:14 37.4 °F 35.6 °F 29.9 in WNW 5 mph 6.2 mph 96% 0 in 0.00 W/m2 unknown
18:19 37.4 °F 35.6 °F 29.9 in WNW 5 mph 6.2 mph 96% 0 in 0.00 W/m2 unknown
18:24 37.4 °F 35.6 °F 29.9 in West 4.3 mph 6.2 mph 96% 0 in 0.00 W/m2 unknown
18:29 37.4 °F 35.6 °F 29.9 in WSW 4.3 mph 5 mph 96% 0 in 0.00 W/m2 unknown
18:34 35.6 °F 35.6 °F 29.9 in WNW 3.7 mph 5 mph 96% 0 in 0.00 W/m2 unknown
18:39 35.6 °F 35.6 °F 29.9 in West 3.7 mph 6.2 mph 96% 0 in 0.00 W/m2 unknown
18:44 35.6 °F 35.6 °F 29.9 in WNW 5.6 mph 6.8 mph 96% 0 in 0.00 W/m2 unknown
18:49 35.6 °F 35.6 °F 29.9 in West 5.6 mph 6.8 mph 96% 0 in 0.00 W/m2 unknown
18:54 35.6 °F 35.6 °F 29.9 in West 6.2 mph 6.8 mph 96% 0 in 0.00 W/m2 unknown
18:59 35.6 °F 35.6 °F 29.9 in West 3.7 mph 6.2 mph 96% 0 in 0.00 W/m2 unknown
19:04 35.6 °F 35.6 °F 29.9 in WNW 4.3 mph 5 mph 96% 0 in 0.00 W/m2 unknown
19:09 35.6 °F 35.6 °F 29.9 in WNW 5 mph 6.2 mph 96% 0 in 0.00 W/m2 unknown
19:14 35.6 °F 35.6 °F 29.9 in WNW 5.6 mph 6.8 mph 96% 0 in 0.00 W/m2 unknown
19:19 35.6 °F 35.6 °F 29.9 in West 5 mph 6.8 mph 96% 0 in 0.00 W/m2 unknown
19:24 35.6 °F 35.6 °F 29.9 in West 3.7 mph 5 mph 96% 0 in 0.00 W/m2 unknown
19:29 35.6 °F 35.6 °F 29.9 in WSW 5.6 mph 8.1 mph 96% 0 in 0.00 W/m2 unknown
19:34 35.6 °F 35.6 °F 29.9 in West 6.2 mph 9.3 mph 96% 0 in 0.00 W/m2 unknown
19:39 35.6 °F 35.6 °F 29.9 in West 6.2 mph 8.7 mph 96% 0 in 0.00 W/m2 unknown
19:44 35.6 °F 35.6 °F 29.9 in WNW 5.6 mph 6.8 mph 96% 0 in 0.00 W/m2 unknown
19:49 35.6 °F 35.6 °F 29.9 in West 5.6 mph 6.8 mph 96% 0 in 0.00 W/m2 unknown
19:54 35.6 °F 35.6 °F 29.9 in WNW 5 mph 6.8 mph 96% 0 in 0.00 W/m2 unknown
19:59 35.6 °F 35.6 °F 29.9 in WNW 5 mph 6.2 mph 96% 0 in 0.00 W/m2 unknown
20:04 35.6 °F 35.6 °F 29.9 in WNW 3.7 mph 6.2 mph 96% 0 in 0.00 W/m2 unknown
20:09 35.6 °F 35.6 °F 29.9 in WNW 3.7 mph 5 mph 96% 0 in 0.00 W/m2 unknown
20:14 35.6 °F 35.6 °F 29.9 in WNW 5.6 mph 6.8 mph 96% 0 in 0.00 W/m2 unknown
20:19 35.6 °F 35.6 °F 29.9 in WNW 6.2 mph 8.1 mph 96% 0 in 0.00 W/m2 unknown
20:24 35.6 °F 35.6 °F 29.9 in West 6.2 mph 8.1 mph 96% 0 in 0.00 W/m2 unknown
20:29 35.6 °F 35.6 °F 29.9 in WNW 5 mph 8.1 mph 96% 0 in 0.00 W/m2 unknown
20:34 35.6 °F 35.6 °F 29.9 in WNW 5 mph 6.8 mph 96% 0 in 0.00 W/m2 unknown
20:39 35.6 °F 35.6 °F 29.9 in WNW 5.6 mph 6.8 mph 96% 0 in 0.00 W/m2 unknown
20:44 35.6 °F 35.6 °F 29.9 in WNW 5.6 mph 6.8 mph 96% 0 in 0.00 W/m2 unknown
20:49 35.6 °F 35.6 °F 29.9 in WNW 5 mph 6.8 mph 96% 0 in 0.00 W/m2 unknown
20:54 35.6 °F 35.6 °F 29.9 in WNW 3.7 mph 6.2 mph 96% 0 in 0.00 W/m2 unknown
20:59 35.6 °F 35.6 °F 29.9 in NW 3.7 mph 5 mph 96% 0 in 0.00 W/m2 unknown
21:00 35.6 °F 35.6 °F 29.9 in WNW 3.1 mph 5 mph 96% 0 in 0.00 W/m2 unknown
21:09 35.6 °F 35.6 °F 29.9 in WNW 3.7 mph 4.3 mph 96% 0 in 0.00 W/m2 unknown
21:14 35.6 °F 35.6 °F 29.9 in NW 3.7 mph 6.2 mph 96% 0 in 0.00 W/m2 unknown
21:19 35.6 °F 35.6 °F 29.9 in NW 3.7 mph 6.2 mph 96% 0 in 0.00 W/m2 unknown
21:24 35.6 °F 35.6 °F 29.9 in NW 5 mph 6.8 mph 96% 0 in 0.00 W/m2 unknown
21:29 35.6 °F 33.8 °F 29.9 in WNW 3.7 mph 6.8 mph 96% 0 in 0.00 W/m2 unknown
21:34 35.6 °F 33.8 °F 29.9 in West 3.1 mph 5 mph 96% 0 in 0.00 W/m2 unknown
21:39 35.6 °F 33.8 °F 29.9 in WNW 3.1 mph 5 mph 96% 0 in 0.00 W/m2 unknown
21:44 35.6 °F 33.8 °F 29.9 in NW 3.7 mph 5 mph 96% 0 in 0.00 W/m2 unknown
21:49 35.6 °F 33.8 °F 29.9 in WNW 4.3 mph 6.2 mph 96% 0 in 0.00 W/m2 unknown
21:54 35.6 °F 33.8 °F 29.9 in West 5.6 mph 6.8 mph 96% 0 in 0.00 W/m2 unknown
21:59 35.6 °F 33.8 °F 29.9 in West 4.3 mph 6.2 mph 96% 0 in 0.00 W/m2 unknown
22:04 35.6 °F 33.8 °F 29.9 in West 5 mph 6.2 mph 96% 0 in 0.00 W/m2 unknown
22:09 35.6 °F 33.8 °F 29.9 in West 5.6 mph 6.8 mph 96% 0 in 0.00 W/m2 unknown
22:14 35.6 °F 33.8 °F 29.9 in West 6.2 mph 6.8 mph 96% 0 in 0.00 W/m2 unknown
22:19 35.6 °F 33.8 °F 29.9 in WNW 4.3 mph 6.8 mph 96% 0 in 0.00 W/m2 unknown
22:24 35.6 °F 33.8 °F 29.9 in West 5 mph 6.8 mph 96% 0 in 0.00 W/m2 unknown
22:29 35.6 °F 33.8 °F 29.9 in West 5 mph 6.2 mph 96% 0 in 0.00 W/m2 unknown
22:34 35.6 °F 33.8 °F 29.9 in West 4.3 mph 6.2 mph 96% 0 in 0.00 W/m2 unknown
22:39 35.6 °F 33.8 °F 29.9 in West 5.6 mph 6.2 mph 96% 0 in 0.00 W/m2 unknown
22:44 35.6 °F 33.8 °F 29.9 in West 3.1 mph 6.2 mph 96% 0 in 0.00 W/m2 unknown
22:49 35.6 °F 33.8 °F 29.9 in WSW 3.1 mph 5 mph 97% 0 in 0.00 W/m2 unknown
22:54 35.6 °F 33.8 °F 29.9 in WSW 3.7 mph 5 mph 97% 0 in 0.00 W/m2 unknown
22:59 35.6 °F 33.8 °F 29.9 in WSW 3.7 mph 6.2 mph 97% 0 in 0.00 W/m2 unknown
23:04 35.6 °F 33.8 °F 29.9 in West 3.7 mph 6.2 mph 97% 0 in 0.00 W/m2 unknown
23:09 35.6 °F 33.8 °F 29.9 in WSW 4.3 mph 5 mph 97% 0 in 0.00 W/m2 unknown
23:14 35.6 °F 33.8 °F 29.9 in West 5 mph 5 mph 97% 0 in 0.00 W/m2 unknown
23:19 35.6 °F 33.8 °F 29.9 in WNW 3.1 mph 5 mph 97% 0 in 0.00 W/m2 unknown
23:24 35.6 °F 33.8 °F 29.9 in WNW 2.5 mph 6.2 mph 97% 0 in 0.00 W/m2 unknown
23:29 35.6 °F 33.8 °F 29.9 in WNW 3.7 mph 6.2 mph 97% 0 in 0.00 W/m2 unknown
23:34 35.6 °F 33.8 °F 29.9 in WNW 3.1 mph 6.2 mph 97% 0 in 0.00 W/m2 unknown
23:39 35.6 °F 33.8 °F 29.9 in West 3.7 mph 5 mph 97% 0 in 0.00 W/m2 unknown
23:44 35.6 °F 33.8 °F 29.9 in WSW 4.3 mph 6.2 mph 97% 0 in 0.00 W/m2 unknown
23:49 35.6 °F 33.8 °F 29.9 in WSW 5 mph 6.2 mph 97% 0 in 0.00 W/m2 unknown
23:54 35.6 °F 33.8 °F 29.9 in WSW 5 mph 6.8 mph 97% 0 in 0.00 W/m2 unknown
23:59 35.6 °F 33.8 °F 29.9 in WSW 4.3 mph 6.8 mph 96% 0 in 0.00 W/m2 unknown
Stazione Meteorologica MeteoMincio Rivalta s/M (MN)
Con i complimenti di Weather Underground - 4 mb



METEO PILLOLE
L'uragano più violento
Galveston - Texas
Nel 1900 un uragano spazza l'isola con venti oltre 160 Km/h e provoca un onda alta oltre 6 m. Si valuta che siano morte 8000 persone.
Share

Non seguire questo link o sarai bannato dal sito!